sensor_id;sensor_type;location;lat;lon;timestamp;pressure;altitude;pressure_sealevel;temperature;humidity
2875;BME280;1445;52.600;13.328;2023-02-11T00:00:27;102230.41;;;3.27;100.00
2875;BME280;1445;52.600;13.328;2023-02-11T00:02:53;102257.63;;;3.34;100.00
2875;BME280;1445;52.600;13.328;2023-02-11T00:05:32;102234.63;;;3.23;100.00
2875;BME280;1445;52.600;13.328;2023-02-11T00:08:16;102234.00;;;3.21;100.00
2875;BME280;1445;52.600;13.328;2023-02-11T00:10:59;102259.16;;;3.23;100.00
2875;BME280;1445;52.600;13.328;2023-02-11T00:16:33;102275.69;;;3.28;100.00
2875;BME280;1445;52.600;13.328;2023-02-11T00:19:08;102278.63;;;3.27;100.00
2875;BME280;1445;52.600;13.328;2023-02-11T00:21:34;102269.00;;;3.24;100.00
2875;BME280;1445;52.600;13.328;2023-02-11T00:24:08;102254.13;;;3.20;100.00
2875;BME280;1445;52.600;13.328;2023-02-11T00:26:34;102247.63;;;3.21;100.00
2875;BME280;1445;52.600;13.328;2023-02-11T00:29:10;102237.53;;;3.28;100.00
2875;BME280;1445;52.600;13.328;2023-02-11T00:31:38;102228.28;;;3.29;100.00
2875;BME280;1445;52.600;13.328;2023-02-11T00:34:06;102232.50;;;3.25;100.00
2875;BME280;1445;52.600;13.328;2023-02-11T00:36:37;102225.81;;;3.21;100.00
2875;BME280;1445;52.600;13.328;2023-02-11T00:39:06;102225.38;;;3.24;100.00
2875;BME280;1445;52.600;13.328;2023-02-11T00:41:34;102233.72;;;3.36;100.00
2875;BME280;1445;52.600;13.328;2023-02-11T00:44:01;102241.28;;;3.34;100.00
2875;BME280;1445;52.600;13.328;2023-02-11T00:46:27;102253.44;;;3.31;100.00
2875;BME280;1445;52.600;13.328;2023-02-11T00:49:00;102234.78;;;3.28;100.00
2875;BME280;1445;52.600;13.328;2023-02-11T00:51:28;102244.41;;;3.38;100.00
2875;BME280;1445;52.600;13.328;2023-02-11T00:54:15;102251.97;;;3.35;100.00
2875;BME280;1445;52.600;13.328;2023-02-11T00:56:53;102239.56;;;3.40;100.00
2875;BME280;1445;52.600;13.328;2023-02-11T00:59:21;102218.38;;;3.42;100.00
2875;BME280;1445;52.600;13.328;2023-02-11T01:02:07;102206.66;;;3.41;100.00
2875;BME280;1445;52.600;13.328;2023-02-11T01:04:37;102221.03;;;3.55;100.00
2875;BME280;1445;52.600;13.328;2023-02-11T01:07:03;102190.81;;;3.56;100.00
2875;BME280;1445;52.600;13.328;2023-02-11T01:09:31;102184.31;;;3.57;100.00
2875;BME280;1445;52.600;13.328;2023-02-11T01:12:04;102178.81;;;3.64;100.00
2875;BME280;1445;52.600;13.328;2023-02-11T01:14:37;102155.56;;;3.62;100.00
2875;BME280;1445;52.600;13.328;2023-02-11T01:17:06;102170.44;;;3.66;100.00
2875;BME280;1445;52.600;13.328;2023-02-11T01:19:35;102174.16;;;3.71;100.00
2875;BME280;1445;52.600;13.328;2023-02-11T01:22:04;102180.22;;;3.73;100.00
2875;BME280;1445;52.600;13.328;2023-02-11T01:24:40;102172.19;;;3.78;100.00
2875;BME280;1445;52.600;13.328;2023-02-11T01:27:26;102168.66;;;3.78;100.00
2875;BME280;1445;52.600;13.328;2023-02-11T01:30:05;102155.00;;;3.78;100.00
2875;BME280;1445;52.600;13.328;2023-02-11T01:33:03;102169.72;;;3.77;100.00
2875;BME280;1445;52.600;13.328;2023-02-11T01:36:04;102155.69;;;3.73;100.00
2875;BME280;1445;52.600;13.328;2023-02-11T01:38:37;102138.47;;;3.73;100.00
2875;BME280;1445;52.600;13.328;2023-02-11T01:41:10;102180.19;;;3.80;100.00
2875;BME280;1445;52.600;13.328;2023-02-11T01:47:03;102114.47;;;3.81;100.00
2875;BME280;1445;52.600;13.328;2023-02-11T01:49:45;102148.88;;;3.82;100.00
2875;BME280;1445;52.600;13.328;2023-02-11T01:54:57;102149.44;;;3.91;100.00
2875;BME280;1445;52.600;13.328;2023-02-11T01:57:50;102117.97;;;3.89;100.00
2875;BME280;1445;52.600;13.328;2023-02-11T02:00:20;102130.78;;;3.88;100.00
2875;BME280;1445;52.600;13.328;2023-02-11T02:02:59;102127.69;;;3.85;100.00
2875;BME280;1445;52.600;13.328;2023-02-11T02:06:02;102124.50;;;3.88;100.00
2875;BME280;1445;52.600;13.328;2023-02-11T02:08:46;102142.53;;;3.89;100.00
2875;BME280;1445;52.600;13.328;2023-02-11T02:11:22;102147.13;;;3.95;100.00
2875;BME280;1445;52.600;13.328;2023-02-11T02:13:52;102148.19;;;3.94;100.00
2875;BME280;1445;52.600;13.328;2023-02-11T02:16:29;102131.03;;;3.87;100.00
2875;BME280;1445;52.600;13.328;2023-02-11T02:33:45;102114.81;;;3.92;100.00
2875;BME280;1445;52.600;13.328;2023-02-11T02:40:08;102087.16;;;3.88;100.00
2875;BME280;1445;52.600;13.328;2023-02-11T02:42:37;102101.81;;;3.94;100.00
2875;BME280;1445;52.600;13.328;2023-02-11T02:45:20;102100.97;;;3.93;100.00
2875;BME280;1445;52.600;13.328;2023-02-11T02:48:20;102115.44;;;3.94;100.00
2875;BME280;1445;52.600;13.328;2023-02-11T03:05:10;102093.44;;;3.89;100.00
2875;BME280;1445;52.600;13.328;2023-02-11T03:08:24;102085.44;;;3.94;100.00
2875;BME280;1445;52.600;13.328;2023-02-11T03:10:54;102081.41;;;3.96;100.00
2875;BME280;1445;52.600;13.328;2023-02-11T03:13:25;102076.63;;;3.92;100.00
2875;BME280;1445;52.600;13.328;2023-02-11T03:16:26;102069.25;;;3.92;100.00
2875;BME280;1445;52.600;13.328;2023-02-11T03:19:12;102076.47;;;3.87;100.00
2875;BME280;1445;52.600;13.328;2023-02-11T03:21:46;102065.56;;;3.87;100.00
2875;BME280;1445;52.600;13.328;2023-02-11T03:24:21;102079.34;;;3.92;100.00
2875;BME280;1445;52.600;13.328;2023-02-11T03:26:56;102072.44;;;3.89;100.00
2875;BME280;1445;52.600;13.328;2023-02-11T03:32:40;102074.50;;;3.94;100.00
2875;BME280;1445;52.600;13.328;2023-02-11T03:35:11;102076.41;;;3.93;100.00
2875;BME280;1445;52.600;13.328;2023-02-11T03:40:35;102080.84;;;3.88;100.00
2875;BME280;1445;52.600;13.328;2023-02-11T03:45:38;102064.31;;;3.82;100.00
2875;BME280;1445;52.600;13.328;2023-02-11T03:48:13;102072.22;;;3.91;100.00
2875;BME280;1445;52.600;13.328;2023-02-11T03:50:43;102071.59;;;3.89;100.00
2875;BME280;1445;52.600;13.328;2023-02-11T03:53:14;102072.81;;;3.93;100.00
2875;BME280;1445;52.600;13.328;2023-02-11T03:56:04;102087.84;;;4.02;100.00
2875;BME280;1445;52.600;13.328;2023-02-11T03:59:01;102089.97;;;4.00;100.00
2875;BME280;1445;52.600;13.328;2023-02-11T04:01:38;102085.19;;;3.95;100.00
2875;BME280;1445;52.600;13.328;2023-02-11T04:04:04;102082.25;;;3.97;100.00
2875;BME280;1445;52.600;13.328;2023-02-11T04:06:32;102086.78;;;4.03;100.00
2875;BME280;1445;52.600;13.328;2023-02-11T04:09:35;102084.44;;;4.06;100.00
2875;BME280;1445;52.600;13.328;2023-02-11T04:12:25;102086.72;;;4.10;100.00
2875;BME280;1445;52.600;13.328;2023-02-11T04:15:04;102085.91;;;4.09;100.00
2875;BME280;1445;52.600;13.328;2023-02-11T04:20:38;102090.22;;;4.17;100.00
2875;BME280;1445;52.600;13.328;2023-02-11T04:23:38;102087.56;;;4.10;100.00
2875;BME280;1445;52.600;13.328;2023-02-11T04:26:16;102084.69;;;4.05;100.00
2875;BME280;1445;52.600;13.328;2023-02-11T04:28:44;102078.78;;;4.08;100.00
2875;BME280;1445;52.600;13.328;2023-02-11T04:31:51;102081.28;;;4.10;100.00
2875;BME280;1445;52.600;13.328;2023-02-11T04:34:48;102075.44;;;4.06;100.00
2875;BME280;1445;52.600;13.328;2023-02-11T04:37:33;102080.00;;;4.12;100.00
2875;BME280;1445;52.600;13.328;2023-02-11T04:40:08;102082.34;;;4.09;100.00
2875;BME280;1445;52.600;13.328;2023-02-11T04:42:36;102098.03;;;4.13;100.00
2875;BME280;1445;52.600;13.328;2023-02-11T04:45:14;102068.91;;;4.07;100.00
2875;BME280;1445;52.600;13.328;2023-02-11T04:47:57;102078.53;;;4.10;100.00
2875;BME280;1445;52.600;13.328;2023-02-11T04:50:38;102071.25;;;4.03;100.00
2875;BME280;1445;52.600;13.328;2023-02-11T04:53:04;102072.94;;;4.04;100.00
2875;BME280;1445;52.600;13.328;2023-02-11T04:55:35;102055.06;;;4.09;100.00
2875;BME280;1445;52.600;13.328;2023-02-11T04:58:47;102064.38;;;4.01;100.00
2875;BME280;1445;52.600;13.328;2023-02-11T05:01:30;102061.34;;;4.09;100.00
2875;BME280;1445;52.600;13.328;2023-02-11T05:04:06;102060.97;;;4.05;100.00
2875;BME280;1445;52.600;13.328;2023-02-11T05:06:34;102061.78;;;4.06;100.00
2875;BME280;1445;52.600;13.328;2023-02-11T05:09:09;102054.13;;;3.96;100.00
2875;BME280;1445;52.600;13.328;2023-02-11T05:11:47;102064.56;;;3.99;100.00
2875;BME280;1445;52.600;13.328;2023-02-11T05:14:20;102065.78;;;4.03;100.00
2875;BME280;1445;52.600;13.328;2023-02-11T05:17:15;102058.09;;;4.00;100.00
2875;BME280;1445;52.600;13.328;2023-02-11T05:19:51;102041.72;;;4.00;100.00
2875;BME280;1445;52.600;13.328;2023-02-11T05:23:08;102036.00;;;4.02;100.00
2875;BME280;1445;52.600;13.328;2023-02-11T05:25:36;102035.13;;;4.08;100.00
2875;BME280;1445;52.600;13.328;2023-02-11T05:28:05;102037.84;;;4.08;100.00
2875;BME280;1445;52.600;13.328;2023-02-11T05:30:33;102029.13;;;4.18;100.00
2875;BME280;1445;52.600;13.328;2023-02-11T05:32:58;102045.03;;;4.21;100.00
2875;BME280;1445;52.600;13.328;2023-02-11T05:35:24;102037.09;;;4.19;100.00
2875;BME280;1445;52.600;13.328;2023-02-11T05:38:09;102030.19;;;4.17;100.00
2875;BME280;1445;52.600;13.328;2023-02-11T05:40:40;102020.84;;;4.24;100.00
2875;BME280;1445;52.600;13.328;2023-02-11T05:43:10;102029.41;;;4.28;100.00
2875;BME280;1445;52.600;13.328;2023-02-11T05:45:38;102018.69;;;4.15;100.00
2875;BME280;1445;52.600;13.328;2023-02-11T05:48:14;102022.44;;;4.14;100.00
2875;BME280;1445;52.600;13.328;2023-02-11T05:53:53;102029.34;;;4.16;100.00
2875;BME280;1445;52.600;13.328;2023-02-11T05:59:41;102031.19;;;4.22;100.00
2875;BME280;1445;52.600;13.328;2023-02-11T06:02:38;102051.34;;;4.21;100.00
2875;BME280;1445;52.600;13.328;2023-02-11T06:05:10;102034.59;;;4.18;100.00
2875;BME280;1445;52.600;13.328;2023-02-11T06:07:38;102051.50;;;4.26;100.00
2875;BME280;1445;52.600;13.328;2023-02-11T06:13:52;102049.97;;;4.30;100.00
2875;BME280;1445;52.600;13.328;2023-02-11T06:16:32;102061.50;;;4.33;100.00
2875;BME280;1445;52.600;13.328;2023-02-11T06:19:05;102038.53;;;4.40;100.00
2875;BME280;1445;52.600;13.328;2023-02-11T06:21:45;102045.06;;;4.39;100.00
2875;BME280;1445;52.600;13.328;2023-02-11T06:24:13;102034.50;;;4.43;100.00
2875;BME280;1445;52.600;13.328;2023-02-11T06:26:44;102041.00;;;4.42;100.00
2875;BME280;1445;52.600;13.328;2023-02-11T06:32:27;102029.72;;;4.38;100.00
2875;BME280;1445;52.600;13.328;2023-02-11T06:34:53;102017.97;;;4.38;100.00
2875;BME280;1445;52.600;13.328;2023-02-11T06:37:42;102029.34;;;4.35;100.00
2875;BME280;1445;52.600;13.328;2023-02-11T06:40:24;102034.34;;;4.38;100.00
2875;BME280;1445;52.600;13.328;2023-02-11T06:42:59;102025.25;;;4.44;100.00
2875;BME280;1445;52.600;13.328;2023-02-11T06:45:25;102030.38;;;4.52;100.00
2875;BME280;1445;52.600;13.328;2023-02-11T06:47:50;102032.66;;;4.55;100.00
2875;BME280;1445;52.600;13.328;2023-02-11T06:50:16;102045.41;;;4.61;100.00
2875;BME280;1445;52.600;13.328;2023-02-11T06:52:41;102040.53;;;4.63;100.00
2875;BME280;1445;52.600;13.328;2023-02-11T06:55:07;102059.19;;;4.66;100.00
2875;BME280;1445;52.600;13.328;2023-02-11T06:57:33;102057.94;;;4.81;100.00
2875;BME280;1445;52.600;13.328;2023-02-11T06:59:58;102059.03;;;4.79;100.00
2875;BME280;1445;52.600;13.328;2023-02-11T07:02:23;102038.00;;;4.80;100.00
2875;BME280;1445;52.600;13.328;2023-02-11T07:04:49;102052.84;;;4.84;100.00
2875;BME280;1445;52.600;13.328;2023-02-11T07:07:14;102045.53;;;4.85;100.00
2875;BME280;1445;52.600;13.328;2023-02-11T07:09:40;102046.47;;;4.90;100.00
2875;BME280;1445;52.600;13.328;2023-02-11T07:12:05;102045.19;;;4.93;100.00
2875;BME280;1445;52.600;13.328;2023-02-11T07:14:33;102046.38;;;4.97;100.00
2875;BME280;1445;52.600;13.328;2023-02-11T07:16:58;102047.69;;;4.94;100.00
2875;BME280;1445;52.600;13.328;2023-02-11T07:19:23;102036.19;;;5.04;100.00
2875;BME280;1445;52.600;13.328;2023-02-11T07:21:49;102026.69;;;5.07;100.00
2875;BME280;1445;52.600;13.328;2023-02-11T07:24:14;102048.47;;;5.13;100.00
2875;BME280;1445;52.600;13.328;2023-02-11T07:26:39;102031.25;;;5.13;100.00
2875;BME280;1445;52.600;13.328;2023-02-11T07:29:05;102032.81;;;5.20;100.00
2875;BME280;1445;52.600;13.328;2023-02-11T07:31:31;102034.00;;;5.24;100.00
2875;BME280;1445;52.600;13.328;2023-02-11T07:33:58;102028.88;;;5.28;100.00
2875;BME280;1445;52.600;13.328;2023-02-11T07:36:24;102017.25;;;5.33;100.00
2875;BME280;1445;52.600;13.328;2023-02-11T07:38:50;102015.59;;;5.32;100.00
2875;BME280;1445;52.600;13.328;2023-02-11T07:41:18;102042.94;;;5.43;100.00
2875;BME280;1445;52.600;13.328;2023-02-11T07:43:43;102015.59;;;5.43;100.00
2875;BME280;1445;52.600;13.328;2023-02-11T07:46:11;102029.03;;;5.45;100.00
2875;BME280;1445;52.600;13.328;2023-02-11T07:48:37;102026.88;;;5.47;100.00
2875;BME280;1445;52.600;13.328;2023-02-11T07:51:10;102013.81;;;5.49;100.00
2875;BME280;1445;52.600;13.328;2023-02-11T07:53:36;102029.75;;;5.52;100.00
2875;BME280;1445;52.600;13.328;2023-02-11T07:56:02;102029.66;;;5.59;100.00
2875;BME280;1445;52.600;13.328;2023-02-11T07:58:28;102022.03;;;5.61;100.00
2875;BME280;1445;52.600;13.328;2023-02-11T08:00:53;102025.84;;;5.60;100.00
2875;BME280;1445;52.600;13.328;2023-02-11T08:03:19;102026.09;;;5.58;100.00
2875;BME280;1445;52.600;13.328;2023-02-11T08:05:44;102017.88;;;5.58;100.00
2875;BME280;1445;52.600;13.328;2023-02-11T08:08:10;102032.13;;;5.60;100.00
2875;BME280;1445;52.600;13.328;2023-02-11T08:10:35;102054.75;;;5.67;100.00
2875;BME280;1445;52.600;13.328;2023-02-11T08:13:01;102042.97;;;5.67;100.00
2875;BME280;1445;52.600;13.328;2023-02-11T08:15:26;102044.63;;;5.68;100.00
2875;BME280;1445;52.600;13.328;2023-02-11T08:17:52;102074.50;;;5.69;100.00
2875;BME280;1445;52.600;13.328;2023-02-11T08:20:17;102054.53;;;5.69;100.00
2875;BME280;1445;52.600;13.328;2023-02-11T08:22:42;102076.63;;;5.67;100.00
2875;BME280;1445;52.600;13.328;2023-02-11T08:25:08;102060.69;;;5.64;100.00
2875;BME280;1445;52.600;13.328;2023-02-11T08:27:33;102072.25;;;5.66;100.00
2875;BME280;1445;52.600;13.328;2023-02-11T08:29:59;102061.28;;;5.66;100.00
2875;BME280;1445;52.600;13.328;2023-02-11T08:32:24;102069.72;;;5.65;100.00
2875;BME280;1445;52.600;13.328;2023-02-11T08:34:50;102066.03;;;5.59;100.00
2875;BME280;1445;52.600;13.328;2023-02-11T08:37:17;102076.88;;;5.66;100.00
2875;BME280;1445;52.600;13.328;2023-02-11T08:39:42;102089.22;;;5.68;100.00
2875;BME280;1445;52.600;13.328;2023-02-11T08:42:08;102091.38;;;5.66;100.00
2875;BME280;1445;52.600;13.328;2023-02-11T08:44:34;102098.16;;;5.75;100.00
2875;BME280;1445;52.600;13.328;2023-02-11T08:46:59;102079.72;;;5.71;100.00
2875;BME280;1445;52.600;13.328;2023-02-11T08:49:25;102084.97;;;5.72;100.00
2875;BME280;1445;52.600;13.328;2023-02-11T08:51:50;102057.13;;;5.75;100.00
2875;BME280;1445;52.600;13.328;2023-02-11T08:54:16;102048.81;;;5.70;100.00
2875;BME280;1445;52.600;13.328;2023-02-11T08:56:42;102041.69;;;5.69;100.00
2875;BME280;1445;52.600;13.328;2023-02-11T08:59:09;102044.78;;;5.73;100.00
2875;BME280;1445;52.600;13.328;2023-02-11T09:01:36;102042.03;;;5.73;100.00
2875;BME280;1445;52.600;13.328;2023-02-11T09:04:02;102042.50;;;5.70;100.00
2875;BME280;1445;52.600;13.328;2023-02-11T09:06:27;102039.53;;;5.71;100.00
2875;BME280;1445;52.600;13.328;2023-02-11T09:08:54;102054.75;;;5.67;100.00
2875;BME280;1445;52.600;13.328;2023-02-11T09:11:25;102058.56;;;5.66;100.00
2875;BME280;1445;52.600;13.328;2023-02-11T09:13:51;102068.06;;;5.64;100.00
2875;BME280;1445;52.600;13.328;2023-02-11T09:16:25;102061.88;;;5.68;100.00
2875;BME280;1445;52.600;13.328;2023-02-11T09:18:51;102077.25;;;5.69;100.00
2875;BME280;1445;52.600;13.328;2023-02-11T09:21:17;102088.09;;;5.76;100.00
2875;BME280;1445;52.600;13.328;2023-02-11T09:23:43;102080.91;;;5.75;100.00
2875;BME280;1445;52.600;13.328;2023-02-11T09:28:41;102075.13;;;5.83;100.00
2875;BME280;1445;52.600;13.328;2023-02-11T09:31:08;102079.63;;;5.78;100.00
2875;BME280;1445;52.600;13.328;2023-02-11T09:33:34;102074.50;;;5.81;100.00
2875;BME280;1445;52.600;13.328;2023-02-11T09:36:04;102076.28;;;5.75;100.00
2875;BME280;1445;52.600;13.328;2023-02-11T09:38:29;102092.84;;;5.81;100.00
2875;BME280;1445;52.600;13.328;2023-02-11T09:40:55;102079.25;;;5.86;100.00
2875;BME280;1445;52.600;13.328;2023-02-11T09:43:45;102094.03;;;5.85;100.00
2875;BME280;1445;52.600;13.328;2023-02-11T09:46:13;102089.75;;;5.89;100.00
2875;BME280;1445;52.600;13.328;2023-02-11T09:48:42;102098.00;;;6.01;100.00
2875;BME280;1445;52.600;13.328;2023-02-11T09:51:34;102108.09;;;6.00;100.00
2875;BME280;1445;52.600;13.328;2023-02-11T09:54:06;102116.19;;;5.95;100.00
2875;BME280;1445;52.600;13.328;2023-02-11T09:56:35;102108.00;;;5.95;100.00
2875;BME280;1445;52.600;13.328;2023-02-11T09:59:00;102109.97;;;5.88;100.00
2875;BME280;1445;52.600;13.328;2023-02-11T10:01:29;102114.63;;;5.87;100.00
2875;BME280;1445;52.600;13.328;2023-02-11T10:04:23;102122.97;;;5.92;100.00
2875;BME280;1445;52.600;13.328;2023-02-11T10:07:27;102119.38;;;5.92;100.00
2875;BME280;1445;52.600;13.328;2023-02-11T10:18:09;102116.91;;;6.02;100.00
2875;BME280;1445;52.600;13.328;2023-02-11T10:23:26;102116.44;;;6.05;100.00
2875;BME280;1445;52.600;13.328;2023-02-11T10:25:54;102129.06;;;6.06;100.00
2875;BME280;1445;52.600;13.328;2023-02-11T10:28:26;102124.28;;;6.13;100.00
2875;BME280;1445;52.600;13.328;2023-02-11T10:31:07;102133.59;;;6.12;100.00
2875;BME280;1445;52.600;13.328;2023-02-11T10:33:45;102133.94;;;6.16;100.00
2875;BME280;1445;52.600;13.328;2023-02-11T10:36:15;102137.66;;;6.21;100.00
2875;BME280;1445;52.600;13.328;2023-02-11T10:38:42;102130.47;;;6.20;100.00
2875;BME280;1445;52.600;13.328;2023-02-11T10:41:12;102131.91;;;6.23;100.00
2875;BME280;1445;52.600;13.328;2023-02-11T10:43:41;102119.06;;;6.24;100.00
2875;BME280;1445;52.600;13.328;2023-02-11T10:46:14;102126.09;;;6.19;100.00
2875;BME280;1445;52.600;13.328;2023-02-11T10:48:49;102108.94;;;6.24;100.00
2875;BME280;1445;52.600;13.328;2023-02-11T10:56:33;102103.72;;;6.22;100.00
2875;BME280;1445;52.600;13.328;2023-02-11T10:59:32;102095.59;;;6.28;100.00
2875;BME280;1445;52.600;13.328;2023-02-11T11:02:22;102100.84;;;6.29;100.00
2875;BME280;1445;52.600;13.328;2023-02-11T11:04:46;102099.88;;;6.24;100.00
2875;BME280;1445;52.600;13.328;2023-02-11T11:07:19;102104.88;;;6.27;100.00
2875;BME280;1445;52.600;13.328;2023-02-11T11:09:57;102110.84;;;6.24;100.00
2875;BME280;1445;52.600;13.328;2023-02-11T11:12:29;102131.66;;;6.25;100.00
2875;BME280;1445;52.600;13.328;2023-02-11T11:15:16;102117.16;;;6.24;100.00
2875;BME280;1445;52.600;13.328;2023-02-11T11:17:43;102126.19;;;6.25;100.00
2875;BME280;1445;52.600;13.328;2023-02-11T11:20:29;102132.16;;;6.21;100.00
2875;BME280;1445;52.600;13.328;2023-02-11T11:23:17;102116.31;;;6.24;100.00
2875;BME280;1445;52.600;13.328;2023-02-11T11:25:56;102094.66;;;6.22;100.00
2875;BME280;1445;52.600;13.328;2023-02-11T11:28:25;102108.72;;;6.26;100.00
2875;BME280;1445;52.600;13.328;2023-02-11T11:30:54;102102.97;;;6.27;100.00
2875;BME280;1445;52.600;13.328;2023-02-11T11:33:33;102108.72;;;6.26;100.00
2875;BME280;1445;52.600;13.328;2023-02-11T11:36:07;102105.00;;;6.32;100.00
2875;BME280;1445;52.600;13.328;2023-02-11T11:38:35;102122.28;;;6.32;100.00
2875;BME280;1445;52.600;13.328;2023-02-11T11:43:56;102109.78;;;6.36;100.00
2875;BME280;1445;52.600;13.328;2023-02-11T11:46:25;102100.72;;;6.36;100.00
2875;BME280;1445;52.600;13.328;2023-02-11T11:48:55;102089.28;;;6.39;100.00
2875;BME280;1445;52.600;13.328;2023-02-11T11:51:23;102091.78;;;6.40;100.00
2875;BME280;1445;52.600;13.328;2023-02-11T11:53:59;102099.25;;;6.45;100.00
2875;BME280;1445;52.600;13.328;2023-02-11T11:56:31;102103.19;;;6.49;100.00
2875;BME280;1445;52.600;13.328;2023-02-11T11:59:08;102089.00;;;6.52;100.00
2875;BME280;1445;52.600;13.328;2023-02-11T12:01:50;102111.88;;;6.58;100.00
2875;BME280;1445;52.600;13.328;2023-02-11T12:10:15;102098.63;;;6.66;100.00
2875;BME280;1445;52.600;13.328;2023-02-11T12:15:30;102106.47;;;6.75;100.00
2875;BME280;1445;52.600;13.328;2023-02-11T12:20:58;102082.16;;;6.78;100.00
2875;BME280;1445;52.600;13.328;2023-02-11T12:26:15;102097.53;;;6.79;100.00
2875;BME280;1445;52.600;13.328;2023-02-11T12:31:53;102103.34;;;6.83;100.00
2875;BME280;1445;52.600;13.328;2023-02-11T12:40:22;102110.59;;;6.89;100.00
2875;BME280;1445;52.600;13.328;2023-02-11T12:43:02;102110.84;;;6.87;100.00
2875;BME280;1445;52.600;13.328;2023-02-11T12:46:26;102110.13;;;6.92;100.00
2875;BME280;1445;52.600;13.328;2023-02-11T12:54:18;102111.31;;;6.84;100.00
2875;BME280;1445;52.600;13.328;2023-02-11T12:56:49;102115.00;;;6.90;100.00
2875;BME280;1445;52.600;13.328;2023-02-11T13:01:49;102127.06;;;6.89;100.00
2875;BME280;1445;52.600;13.328;2023-02-11T13:04:34;102118.91;;;6.94;100.00
2875;BME280;1445;52.600;13.328;2023-02-11T13:07:11;102121.44;;;6.96;100.00
2875;BME280;1445;52.600;13.328;2023-02-11T13:09:44;102121.66;;;6.94;100.00
2875;BME280;1445;52.600;13.328;2023-02-11T13:12:12;102128.50;;;6.91;100.00
2875;BME280;1445;52.600;13.328;2023-02-11T13:15:02;102136.19;;;6.94;100.00
2875;BME280;1445;52.600;13.328;2023-02-11T13:17:38;102129.88;;;6.94;100.00
2875;BME280;1445;52.600;13.328;2023-02-11T13:20:17;102127.50;;;6.98;100.00
2875;BME280;1445;52.600;13.328;2023-02-11T13:22:53;102140.38;;;6.97;100.00
2875;BME280;1445;52.600;13.328;2023-02-11T13:25:32;102134.88;;;6.97;100.00
2875;BME280;1445;52.600;13.328;2023-02-11T13:28:31;102128.66;;;7.02;100.00
2875;BME280;1445;52.600;13.328;2023-02-11T13:31:01;102130.84;;;7.00;100.00
2875;BME280;1445;52.600;13.328;2023-02-11T13:38:29;102142.97;;;7.04;100.00
2875;BME280;1445;52.600;13.328;2023-02-11T13:43:43;102153.81;;;7.10;100.00
2875;BME280;1445;52.600;13.328;2023-02-11T13:46:20;102160.03;;;7.06;100.00
2875;BME280;1445;52.600;13.328;2023-02-11T13:48:50;102146.53;;;7.04;100.00
2875;BME280;1445;52.600;13.328;2023-02-11T13:51:38;102154.78;;;7.04;100.00
2875;BME280;1445;52.600;13.328;2023-02-11T13:54:05;102162.59;;;7.12;100.00
2875;BME280;1445;52.600;13.328;2023-02-11T13:59:01;102178.97;;;7.07;100.00
2875;BME280;1445;52.600;13.328;2023-02-11T14:04:32;102163.34;;;7.08;100.00
2875;BME280;1445;52.600;13.328;2023-02-11T14:07:29;102155.13;;;7.08;100.00
2875;BME280;1445;52.600;13.328;2023-02-11T14:15:45;102175.06;;;7.03;100.00
2875;BME280;1445;52.600;13.328;2023-02-11T14:23:52;102170.06;;;7.00;100.00
2875;BME280;1445;52.600;13.328;2023-02-11T14:26:34;102165.66;;;6.99;100.00
2875;BME280;1445;52.600;13.328;2023-02-11T14:29:15;102177.78;;;7.03;100.00
2875;BME280;1445;52.600;13.328;2023-02-11T14:37:32;102181.97;;;6.94;100.00
2875;BME280;1445;52.600;13.328;2023-02-11T14:42:39;102174.00;;;6.92;100.00
2875;BME280;1445;52.600;13.328;2023-02-11T14:45:07;102186.41;;;6.95;100.00
2875;BME280;1445;52.600;13.328;2023-02-11T14:47:49;102172.09;;;6.93;100.00
2875;BME280;1445;52.600;13.328;2023-02-11T14:50:25;102185.06;;;6.98;100.00
2875;BME280;1445;52.600;13.328;2023-02-11T14:52:52;102183.41;;;6.97;100.00
2875;BME280;1445;52.600;13.328;2023-02-11T14:55:26;102199.03;;;6.96;100.00
2875;BME280;1445;52.600;13.328;2023-02-11T15:00:31;102220.97;;;6.96;100.00
2875;BME280;1445;52.600;13.328;2023-02-11T15:02:56;102224.28;;;6.98;100.00
2875;BME280;1445;52.600;13.328;2023-02-11T15:05:25;102225.38;;;6.97;100.00
2875;BME280;1445;52.600;13.328;2023-02-11T15:07:57;102216.06;;;6.98;100.00
2875;BME280;1445;52.600;13.328;2023-02-11T15:12:55;102211.66;;;6.97;100.00
2875;BME280;1445;52.600;13.328;2023-02-11T15:15:22;102211.44;;;6.99;100.00
2875;BME280;1445;52.600;13.328;2023-02-11T15:17:47;102217.63;;;6.94;100.00
2875;BME280;1445;52.600;13.328;2023-02-11T15:20:23;102238.50;;;6.95;100.00
2875;BME280;1445;52.600;13.328;2023-02-11T15:22:54;102224.28;;;6.98;100.00
2875;BME280;1445;52.600;13.328;2023-02-11T15:25:21;102236.94;;;6.99;100.00
2875;BME280;1445;52.600;13.328;2023-02-11T15:27:50;102227.75;;;6.93;100.00
2875;BME280;1445;52.600;13.328;2023-02-11T15:35:13;102244.56;;;6.97;100.00
2875;BME280;1445;52.600;13.328;2023-02-11T15:37:39;102258.41;;;7.02;100.00
2875;BME280;1445;52.600;13.328;2023-02-11T15:40:15;102258.41;;;7.02;100.00
2875;BME280;1445;52.600;13.328;2023-02-11T15:47:50;102269.84;;;6.99;100.00
2875;BME280;1445;52.600;13.328;2023-02-11T15:50:29;102267.31;;;6.98;100.00
2875;BME280;1445;52.600;13.328;2023-02-11T15:52:59;102266.50;;;6.97;100.00
2875;BME280;1445;52.600;13.328;2023-02-11T15:55:25;102277.47;;;6.97;100.00
2875;BME280;1445;52.600;13.328;2023-02-11T15:57:57;102269.00;;;6.99;100.00
2875;BME280;1445;52.600;13.328;2023-02-11T16:00:33;102272.59;;;6.99;100.00
2875;BME280;1445;52.600;13.328;2023-02-11T16:02:59;102266.28;;;6.99;100.00
2875;BME280;1445;52.600;13.328;2023-02-11T16:05:33;102262.19;;;7.01;100.00
2875;BME280;1445;52.600;13.328;2023-02-11T16:08:10;102268.16;;;6.98;100.00
2875;BME280;1445;52.600;13.328;2023-02-11T16:10:37;102269.38;;;7.02;100.00
2875;BME280;1445;52.600;13.328;2023-02-11T16:18:12;102272.22;;;7.07;100.00
2875;BME280;1445;52.600;13.328;2023-02-11T16:20:38;102268.63;;;7.07;100.00
2875;BME280;1445;52.600;13.328;2023-02-11T16:23:05;102273.75;;;7.03;100.00
2875;BME280;1445;52.600;13.328;2023-02-11T16:25:33;102282.34;;;7.07;100.00